Time;durP1;ratioP1;P1;durP2;ratioP2;P2;SDS_P1;SDS_P2;PMS_P1;PMS_P2;Temp;Humidity;BMP_temperature;BMP_pressure;BME280_temperature;BME280_humidity;BME280_pressure;Samples;Min_cycle;Max_cycle;Signal;HPM_P1;HPM_P2
2023/01/15 00:01:33;;;;;;;8.07;1.67;;;8.80;63.60;;;;;;4990094;28;20031;-85
2023/01/15 00:04:02;;;;;;;3.72;0.82;;;8.80;63.60;;;;;;4982208;28;20043;-85
2023/01/15 00:06:29;;;;;;;3.90;1.15;;;8.80;63.60;;;;;;4978050;28;20035;-83
2023/01/15 00:08:55;;;;;;;5.22;1.23;;;8.80;63.60;;;;;;4989488;28;20427;-84
2023/01/15 00:11:22;;;;;;;5.07;1.08;;;8.80;63.60;;;;;;4989721;28;20111;-84
2023/01/15 00:13:48;;;;;;;5.82;1.00;;;8.80;63.60;;;;;;4991511;28;20066;-82
2023/01/15 00:16:26;;;;;;;3.95;1.33;;;8.80;63.60;;;;;;4976019;28;20053;-83
2023/01/15 00:18:57;;;;;;;5.05;1.13;;;8.80;63.60;;;;;;4980644;28;20054;-84
2023/01/15 00:21:25;;;;;;;8.52;1.45;;;8.70;63.50;;;;;;4978931;28;20043;-83
2023/01/15 00:29:22;;;;;;;5.07;1.23;;;8.70;63.50;;;;;;4977992;28;20046;-84
2023/01/15 00:32:04;;;;;;;6.28;1.30;;;8.70;63.50;;;;;;4977705;28;20454;-83
2023/01/15 00:34:30;;;;;;;5.85;1.08;;;8.60;63.30;;;;;;4976406;28;20091;-84
2023/01/15 00:36:57;;;;;;;6.50;1.65;;;8.60;63.90;;;;;;4978306;28;20046;-84
2023/01/15 00:39:24;;;;;;;10.07;1.38;;;8.60;63.30;;;;;;4991895;28;20034;-80
2023/01/15 00:41:51;;;;;;;8.65;1.67;;;8.50;63.20;;;;;;4991535;28;20035;-83
2023/01/15 00:44:18;;;;;;;5.03;1.23;;;8.60;63.40;;;;;;4978877;28;20550;-82
2023/01/15 00:46:44;;;;;;;5.00;1.38;;;8.50;63.20;;;;;;4989910;28;20047;-83
2023/01/15 00:49:10;;;;;;;7.80;2.22;;;8.50;63.20;;;;;;4985177;28;20038;-84
2023/01/15 00:51:36;;;;;;;6.32;1.30;;;8.50;63.20;;;;;;4976280;28;20070;-83
2023/01/15 00:54:02;;;;;;;7.07;1.95;;;8.50;63.20;;;;;;4991059;28;20473;-84
2023/01/15 00:56:28;;;;;;;6.13;1.10;;;8.50;63.20;;;;;;4976713;28;20354;-85
2023/01/15 00:58:54;;;;;;;6.15;1.10;;;8.50;63.40;;;;;;4976979;28;20031;-85
2023/01/15 01:01:21;;;;;;;6.53;2.00;;;8.50;63.10;;;;;;4998120;28;20043;-85
2023/01/15 01:03:49;;;;;;;5.97;1.58;;;8.50;63.10;;;;;;4991420;28;20343;-84
2023/01/15 01:06:15;;;;;;;6.75;1.50;;;8.50;63.00;;;;;;4977905;28;20097;-84
2023/01/15 01:08:44;;;;;;;5.45;1.33;;;8.50;63.00;;;;;;4975568;28;20026;-85
2023/01/15 01:11:14;;;;;;;3.42;1.75;;;8.50;62.90;;;;;;4975413;28;20058;-84
2023/01/15 01:13:41;;;;;;;5.03;2.13;;;8.50;62.90;;;;;;4990646;28;20030;-83
2023/01/15 01:16:38;;;;;;;7.68;1.42;;;8.50;62.90;;;;;;4990408;28;20050;-82
2023/01/15 01:19:10;;;;;;;3.75;1.10;;;8.50;62.80;;;;;;4954014;28;20039;-83
2023/01/15 01:21:37;;;;;;;8.43;1.42;;;8.50;62.80;;;;;;4977627;28;20077;-85
2023/01/15 01:24:04;;;;;;;5.07;1.10;;;8.40;62.60;;;;;;4963027;28;20113;-85
2023/01/15 01:26:30;;;;;;;7.85;1.65;;;8.50;62.80;;;;;;4977056;28;20035;-85
2023/01/15 01:28:57;;;;;;;7.72;1.55;;;8.50;62.80;;;;;;4999528;28;20038;-84
2023/01/15 01:31:23;;;;;;;5.22;1.35;;;8.50;62.80;;;;;;4998483;28;20133;-84
2023/01/15 01:33:51;;;;;;;6.40;1.50;;;8.50;62.80;;;;;;4986590;28;20049;-85
2023/01/15 01:36:19;;;;;;;7.30;1.65;;;8.50;62.70;;;;;;5011692;28;20038;-86
2023/01/15 01:38:51;;;;;;;6.25;1.75;;;8.50;62.70;;;;;;4988742;28;20037;-85
2023/01/15 01:41:17;;;;;;;9.70;2.33;;;8.50;62.70;;;;;;4999883;28;20061;-83
2023/01/15 01:44:27;;;;;;;9.45;1.45;;;8.50;62.70;;;;;;4993694;28;20120;-82
2023/01/15 01:46:53;;;;;;;6.85;2.47;;;8.50;62.60;;;;;;5005067;28;20062;-84
2023/01/15 01:49:21;;;;;;;5.22;1.70;;;8.50;62.60;;;;;;4993752;28;20482;-83
2023/01/15 01:52:09;;;;;;;4.18;1.17;;;8.50;62.50;;;;;;4978627;28;20031;-82
2023/01/15 01:54:37;;;;;;;4.93;1.73;;;8.50;62.50;;;;;;4995471;28;20042;-84
2023/01/15 01:57:05;;;;;;;7.95;2.10;;;8.50;62.40;;;;;;4984884;28;20639;-85
2023/01/15 01:59:32;;;;;;;11.00;2.03;;;8.40;62.30;;;;;;4990761;28;20031;-85
2023/01/15 02:01:59;;;;;;;5.22;1.25;;;8.50;62.40;;;;;;4979055;28;20046;-85
2023/01/15 02:04:27;;;;;;;7.88;1.67;;;8.40;62.30;;;;;;4996231;28;20073;-84
2023/01/15 02:06:54;;;;;;;4.45;1.40;;;8.50;62.40;;;;;;4980263;28;20045;-86
2023/01/15 02:09:20;;;;;;;9.77;1.92;;;8.40;62.30;;;;;;4987684;28;20045;-87
2023/01/15 02:11:54;;;;;;;11.10;2.03;;;8.40;62.30;;;;;;4994260;28;20034;-84
2023/01/15 02:14:30;;;;;;;14.20;2.50;;;8.40;62.30;;;;;;5000315;28;20039;-85
2023/01/15 02:17:32;;;;;;;9.23;2.97;;;8.40;62.30;;;;;;4984988;28;20047;-85
2023/01/15 02:20:29;;;;;;;5.90;1.30;;;8.40;62.30;;;;;;4965521;28;20039;-86
2023/01/15 02:23:17;;;;;;;8.27;1.80;;;8.40;62.30;;;;;;4972917;28;20051;-87
2023/01/15 02:25:43;;;;;;;7.60;2.72;;;8.40;62.30;;;;;;4981853;28;20035;-87
2023/01/15 02:28:18;;;;;;;9.20;2.00;;;8.40;62.20;;;;;;4995545;28;20561;-86
2023/01/15 02:30:49;;;;;;;10.23;1.60;;;8.40;62.30;;;;;;4994870;28;20044;-86
2023/01/15 02:33:35;;;;;;;8.50;2.00;;;8.40;62.20;;;;;;4992705;28;20093;-85
2023/01/15 02:36:05;;;;;;;7.13;1.50;;;8.40;62.10;;;;;;4992077;28;20054;-85
2023/01/15 02:38:38;;;;;;;5.88;1.63;;;8.40;62.10;;;;;;5008913;28;20031;-87
2023/01/15 02:41:15;;;;;;;4.75;1.63;;;8.40;62.10;;;;;;4998266;28;20038;-86
2023/01/15 02:43:47;;;;;;;8.50;1.80;;;8.40;62.10;;;;;;4999681;28;20037;-87
2023/01/15 02:46:16;;;;;;;5.07;1.67;;;8.40;62.00;;;;;;5001778;28;20061;-86
2023/01/15 02:48:48;;;;;;;5.70;1.20;;;8.40;62.00;;;;;;4987138;28;20035;-85
2023/01/15 02:51:18;;;;;;;3.97;1.83;;;8.40;62.00;;;;;;4985303;28;20065;-88
2023/01/15 02:53:47;;;;;;;5.00;1.10;;;8.40;62.10;;;;;;5007143;28;20038;-87
2023/01/15 02:56:20;;;;;;;5.40;1.48;;;8.40;62.00;;;;;;4998572;28;20121;-85
2023/01/15 02:58:54;;;;;;;11.68;2.50;;;8.40;62.10;;;;;;4999343;28;20042;-85
2023/01/15 03:01:46;;;;;;;12.43;1.95;;;8.40;62.10;;;;;;4998779;28;20129;-85
2023/01/15 03:04:18;;;;;;;9.40;1.80;;;8.40;62.10;;;;;;4991254;28;20107;-86
2023/01/15 03:06:47;;;;;;;5.78;1.73;;;8.40;62.10;;;;;;4997195;28;20402;-85
2023/01/15 03:09:15;;;;;;;10.00;2.25;;;8.40;62.20;;;;;;4992182;28;20050;-86
2023/01/15 03:12:07;;;;;;;10.23;1.55;;;8.30;62.00;;;;;;4988371;28;20114;-84
2023/01/15 03:15:05;;;;;;;7.20;1.40;;;8.30;62.10;;;;;;4995803;28;20038;-86
2023/01/15 03:17:42;;;;;;;5.97;1.48;;;8.40;62.30;;;;;;4990985;28;20058;-86
2023/01/15 03:20:15;;;;;;;7.68;1.38;;;8.40;62.30;;;;;;5000940;28;20473;-85
2023/01/15 03:22:45;;;;;;;7.43;1.73;;;8.30;62.10;;;;;;5004216;28;20038;-84
2023/01/15 03:25:22;;;;;;;11.27;1.88;;;8.30;62.20;;;;;;4990694;28;21059;-84
2023/01/15 03:27:55;;;;;;;7.10;2.28;;;8.30;62.20;;;;;;4995143;28;20027;-85
2023/01/15 03:30:22;;;;;;;6.13;1.05;;;8.30;62.30;;;;;;4995016;28;20427;-85
2023/01/15 03:32:52;;;;;;;9.30;2.30;;;8.30;62.30;;;;;;4971354;28;20036;-85
2023/01/15 03:35:51;;;;;;;8.75;1.65;;;8.30;62.30;;;;;;4995194;28;20039;-86
2023/01/15 03:38:34;;;;;;;8.05;1.92;;;8.30;62.30;;;;;;4997673;28;20041;-83
2023/01/15 03:41:38;;;;;;;7.68;1.80;;;8.30;62.30;;;;;;4994181;28;20046;-83
2023/01/15 03:44:26;;;;;;;7.18;1.17;;;8.30;62.30;;;;;;4993763;28;20042;-83
2023/01/15 03:47:20;;;;;;;4.25;1.20;;;8.30;62.30;;;;;;4982617;28;20054;-85
2023/01/15 03:49:56;;;;;;;6.68;1.58;;;8.30;62.30;;;;;;4994105;28;20113;-84
2023/01/15 03:53:08;;;;;;;6.72;1.15;;;8.30;62.30;;;;;;4991414;28;20086;-83
2023/01/15 03:55:50;;;;;;;8.98;2.20;;;8.20;62.70;;;;;;4994592;28;20054;-84
2023/01/15 03:58:23;;;;;;;4.30;1.43;;;8.20;62.20;;;;;;4994805;28;20102;-87
2023/01/15 04:00:54;;;;;;;5.75;1.13;;;8.20;62.30;;;;;;4994482;28;20094;-84
2023/01/15 04:03:23;;;;;;;6.53;1.47;;;8.20;62.30;;;;;;4993928;28;20042;-85
2023/01/15 04:05:51;;;;;;;6.45;1.77;;;8.20;62.30;;;;;;5004547;28;20045;-86
2023/01/15 04:08:19;;;;;;;8.93;2.22;;;8.20;62.30;;;;;;4993967;28;20057;-88
2023/01/15 04:10:59;;;;;;;6.80;1.50;;;8.20;62.30;;;;;;4994629;28;20031;-86
2023/01/15 04:13:29;;;;;;;7.30;1.65;;;8.20;62.30;;;;;;4978248;28;20482;-85
2023/01/15 04:15:56;;;;;;;6.43;1.60;;;8.20;62.30;;;;;;4996535;28;20121;-85
2023/01/15 04:18:24;;;;;;;6.88;1.58;;;8.20;62.30;;;;;;5001465;28;20039;-85
2023/01/15 04:20:50;;;;;;;7.43;1.63;;;8.20;62.40;;;;;;4992719;28;20043;-86
2023/01/15 04:23:16;;;;;;;4.15;1.00;;;8.20;62.40;;;;;;4994022;28;20043;-85
2023/01/15 04:25:45;;;;;;;3.22;0.93;;;8.20;62.40;;;;;;4976638;28;20505;-84
2023/01/15 04:28:13;;;;;;;6.30;1.30;;;8.20;62.40;;;;;;4991167;28;20043;-86
2023/01/15 04:30:41;;;;;;;8.45;1.65;;;8.20;62.40;;;;;;4978856;28;20545;-86
2023/01/15 04:33:07;;;;;;;3.83;1.00;;;8.20;62.40;;;;;;4986615;28;20030;-86
2023/01/15 04:35:34;;;;;;;8.48;1.60;;;8.10;62.30;;;;;;4995351;28;20102;-86
2023/01/15 04:38:00;;;;;;;9.77;1.55;;;8.10;62.30;;;;;;4979410;28;20625;-85
2023/01/15 04:45:58;;;;;;;4.95;1.20;;;8.10;62.40;;;;;;4977158;28;20490;-85
2023/01/15 04:48:27;;;;;;;5.65;1.65;;;8.00;62.30;;;;;;4978758;28;20039;-84
2023/01/15 04:50:53;;;;;;;6.32;1.35;;;8.00;62.30;;;;;;4978313;28;20114;-86
2023/01/15 04:53:19;;;;;;;2.28;1.30;;;8.00;62.40;;;;;;4975618;28;20039;-84
2023/01/15 04:55:45;;;;;;;9.20;2.05;;;8.00;62.40;;;;;;4991353;28;20039;-84
2023/01/15 04:58:11;;;;;;;3.80;1.23;;;8.00;62.50;;;;;;4990910;28;20030;-84
2023/01/15 05:00:37;;;;;;;6.55;1.42;;;8.00;62.50;;;;;;4978411;28;20041;-85
2023/01/15 05:03:03;;;;;;;4.20;1.33;;;7.90;62.30;;;;;;4968000;28;20062;-85
2023/01/15 05:05:31;;;;;;;5.78;1.15;;;8.00;62.60;;;;;;4976183;28;20129;-85
2023/01/15 05:07:57;;;;;;;4.55;1.40;;;8.00;62.60;;;;;;4976429;28;20027;-85
2023/01/15 05:10:23;;;;;;;9.75;2.15;;;7.90;62.50;;;;;;4979923;28;20041;-87
2023/01/15 05:12:49;;;;;;;6.40;1.70;;;7.90;62.50;;;;;;5012639;28;20114;-85
2023/01/15 05:15:15;;;;;;;7.72;1.45;;;7.90;62.60;;;;;;4981623;28;20116;-85
2023/01/15 05:17:40;;;;;;;8.02;1.90;;;7.90;62.60;;;;;;4997297;28;20074;-86
2023/01/15 05:20:07;;;;;;;9.40;2.22;;;7.90;62.70;;;;;;4993673;28;20026;-85
2023/01/15 05:22:34;;;;;;;4.25;1.10;;;7.90;62.70;;;;;;4996802;28;20070;-84
2023/01/15 05:25:00;;;;;;;5.45;1.50;;;7.90;62.70;;;;;;4979692;28;20061;-83
2023/01/15 05:27:26;;;;;;;6.40;1.15;;;7.90;62.70;;;;;;4986743;28;20046;-84
2023/01/15 05:29:52;;;;;;;4.70;1.65;;;7.90;62.70;;;;;;4974362;28;20118;-85
2023/01/15 05:32:18;;;;;;;2.38;0.95;;;7.90;62.70;;;;;;4994473;28;20123;-87
2023/01/15 05:34:44;;;;;;;8.82;1.48;;;7.90;62.80;;;;;;4974610;28;20037;-85
2023/01/15 05:37:10;;;;;;;5.15;1.00;;;7.90;62.80;;;;;;4994855;28;20043;-85
2023/01/15 05:39:36;;;;;;;7.18;2.05;;;7.90;62.80;;;;;;4996255;28;20365;-84
2023/01/15 05:42:02;;;;;;;6.88;1.75;;;7.90;62.80;;;;;;4997232;28;20046;-83
2023/01/15 05:44:29;;;;;;;7.40;1.02;;;7.90;62.80;;;;;;4996466;28;20097;-85
2023/01/15 05:46:57;;;;;;;3.78;1.42;;;7.90;62.90;;;;;;4984121;28;20747;-86
2023/01/15 05:49:26;;;;;;;6.30;1.65;;;7.90;62.90;;;;;;4978849;28;20031;-85
2023/01/15 05:51:53;;;;;;;5.70;1.65;;;7.90;62.90;;;;;;4988978;28;20031;-85
2023/01/15 05:54:22;;;;;;;7.38;1.42;;;7.90;62.90;;;;;;4992969;28;20093;-83
2023/01/15 05:56:49;;;;;;;5.95;1.65;;;7.90;63.00;;;;;;4977507;28;20066;-85
2023/01/15 05:59:17;;;;;;;3.17;1.17;;;7.90;63.00;;;;;;4982373;28;20105;-87
2023/01/15 06:01:43;;;;;;;4.07;0.98;;;7.90;63.00;;;;;;4992696;28;20030;-85
2023/01/15 06:04:13;;;;;;;7.15;1.10;;;7.90;63.00;;;;;;4984573;28;20039;-85
2023/01/15 06:06:40;;;;;;;7.05;2.05;;;7.90;63.00;;;;;;4974561;28;20113;-84
2023/01/15 06:09:06;;;;;;;5.30;1.10;;;7.80;62.90;;;;;;5004516;28;20054;-84
2023/01/15 06:11:32;;;;;;;5.55;0.98;;;7.80;63.00;;;;;;4975772;28;20069;-86
2023/01/15 06:13:58;;;;;;;6.63;1.10;;;7.90;63.20;;;;;;4985935;28;20043;-86
2023/01/15 06:16:24;;;;;;;4.28;1.30;;;7.80;63.00;;;;;;4986826;28;20115;-88
2023/01/15 06:18:50;;;;;;;6.95;1.20;;;7.80;63.00;;;;;;4977333;28;20560;-84
2023/01/15 06:21:17;;;;;;;9.15;1.80;;;7.80;63.10;;;;;;4979977;28;20035;-83
2023/01/15 06:23:43;;;;;;;8.77;2.10;;;7.80;63.60;;;;;;4980949;28;20042;-85
2023/01/15 06:26:15;;;;;;;3.60;1.10;;;7.80;63.10;;;;;;4979468;28;20034;-87
2023/01/15 06:28:42;;;;;;;7.20;1.63;;;7.80;63.20;;;;;;4989036;28;20034;-86
2023/01/15 06:31:11;;;;;;;7.07;1.55;;;7.80;63.20;;;;;;4996755;28;20448;-86
2023/01/15 06:33:37;;;;;;;7.25;1.20;;;7.80;63.20;;;;;;4989923;28;20030;-85
2023/01/15 06:36:20;;;;;;;12.68;2.03;;;7.80;63.20;;;;;;4973223;28;20066;-84
2023/01/15 06:38:47;;;;;;;6.63;1.77;;;7.80;63.20;;;;;;4980037;28;20030;-83
2023/01/15 06:49:36;;;;;;;7.65;1.67;;;7.70;63.20;;;;;;4981653;28;20085;-82
2023/01/15 06:52:03;;;;;;;8.73;1.90;;;7.70;63.30;;;;;;4970541;28;20031;-84
2023/01/15 06:54:29;;;;;;;7.10;2.08;;;7.70;63.30;;;;;;4988376;28;20514;-79
2023/01/15 06:56:55;;;;;;;9.32;1.63;;;7.70;63.30;;;;;;5001518;28;20038;-81
2023/01/15 06:59:21;;;;;;;10.98;2.25;;;7.70;63.40;;;;;;4981312;28;20034;-85
2023/01/15 07:01:47;;;;;;;12.07;2.67;;;7.80;63.60;;;;;;4982718;28;20062;-82
2023/01/15 07:04:14;;;;;;;10.13;1.90;;;7.80;63.60;;;;;;4986426;28;20361;-91
2023/01/15 07:06:40;;;;;;;9.30;2.30;;;7.80;63.60;;;;;;4997296;28;20038;-92
2023/01/15 07:09:06;;;;;;;11.25;2.15;;;7.80;63.60;;;;;;4992803;28;20023;-89
2023/01/15 07:11:32;;;;;;;6.45;1.73;;;7.80;63.60;;;;;;5002126;28;20126;-90
2023/01/15 07:14:07;;;;;;;7.68;2.08;;;7.80;63.70;;;;;;4979988;28;20098;-92
2023/01/15 07:16:35;;;;;;;3.72;1.38;;;7.90;63.90;;;;;;4990322;28;20042;-91
2023/01/15 07:19:02;;;;;;;8.80;2.05;;;7.90;63.80;;;;;;5001644;28;20561;-93
2023/01/15 07:21:28;;;;;;;10.05;2.17;;;8.00;64.00;;;;;;4979817;28;20038;-85
2023/01/15 07:23:57;;;;;;;7.07;1.73;;;8.00;64.00;;;;;;4978447;28;20117;-84
2023/01/15 07:26:23;;;;;;;4.63;1.67;;;8.00;64.00;;;;;;4986018;28;20065;-86
2023/01/15 07:28:49;;;;;;;14.43;2.80;;;8.00;64.20;;;;;;4989283;28;20537;-87
2023/01/15 07:31:15;;;;;;;7.93;1.98;;;8.10;64.80;;;;;;4975271;28;20035;-83
2023/01/15 07:33:41;;;;;;;9.55;2.15;;;8.20;65.20;;;;;;4969645;28;20058;-80
2023/01/15 07:36:07;;;;;;;7.88;1.73;;;8.30;65.40;;;;;;4980457;28;20133;-80
2023/01/15 07:38:33;;;;;;;7.22;1.83;;;8.30;65.30;;;;;;4983723;28;20198;-80
2023/01/15 07:52:04;;;;;;;7.40;1.90;;;8.40;65.40;;;;;;4980165;28;20031;-88
2023/01/15 07:54:30;;;;;;;12.82;3.10;;;8.30;65.20;;;;;;4976646;28;20034;-91
2023/01/15 07:56:56;;;;;;;6.70;1.60;;;8.30;65.30;;;;;;4992668;28;20415;-85
2023/01/15 07:59:23;;;;;;;7.55;1.70;;;8.30;65.30;;;;;;4974874;28;20049;-93
2023/01/15 08:01:50;;;;;;;7.35;2.25;;;8.30;65.30;;;;;;4980069;28;20047;-92
2023/01/15 08:04:16;;;;;;;8.82;1.95;;;8.30;65.40;;;;;;5004506;28;20030;-90
2023/01/15 08:06:42;;;;;;;10.30;1.88;;;8.30;65.40;;;;;;4976060;28;20034;-82
2023/01/15 08:09:08;;;;;;;8.50;1.73;;;8.30;65.40;;;;;;4971810;28;20402;-85
2023/01/15 08:17:03;;;;;;;7.20;2.10;;;8.40;66.30;;;;;;4976048;28;20300;-79
2023/01/15 08:19:29;;;;;;;12.60;2.72;;;8.50;66.50;;;;;;4960061;28;20658;-79
2023/01/15 08:21:56;;;;;;;10.00;1.83;;;8.50;66.40;;;;;;4968774;28;20126;-79
2023/01/15 08:24:25;;;;;;;11.05;2.17;;;8.50;66.50;;;;;;4978782;28;20509;-84
2023/01/15 08:26:51;;;;;;;10.77;2.20;;;8.60;66.70;;;;;;4970632;28;20026;-85
2023/01/15 08:29:18;;;;;;;9.82;1.88;;;8.50;66.50;;;;;;4970372;28;20451;-87
2023/01/15 08:31:44;;;;;;;13.05;2.45;;;8.50;66.50;;;;;;4994127;28;20042;-85
2023/01/15 08:34:10;;;;;;;8.52;2.20;;;8.50;66.50;;;;;;4971264;28;20057;-84
2023/01/15 08:36:37;;;;;;;6.97;2.47;;;8.40;66.30;;;;;;4972088;28;20039;-87
2023/01/15 08:39:04;;;;;;;7.55;2.15;;;8.50;66.50;;;;;;4973203;28;20050;-86
2023/01/15 08:41:31;;;;;;;10.95;2.70;;;8.40;66.30;;;;;;4973257;28;20043;-85
2023/01/15 08:43:57;;;;;;;8.18;1.65;;;8.40;66.30;;;;;;4972386;28;20042;-84
2023/01/15 08:46:22;;;;;;;6.55;2.13;;;8.40;66.30;;;;;;4956050;28;20082;-85
2023/01/15 08:48:48;;;;;;;7.70;2.13;;;8.40;66.40;;;;;;4966875;28;20074;-85
2023/01/15 08:51:16;;;;;;;7.32;1.88;;;8.40;66.30;;;;;;4994924;28;20039;-85
2023/01/15 08:53:42;;;;;;;10.45;2.40;;;8.50;66.50;;;;;;4967237;28;20027;-85
2023/01/15 08:56:12;;;;;;;7.22;1.90;;;8.50;66.40;;;;;;4983960;28;20069;-86
2023/01/15 08:58:38;;;;;;;5.95;2.13;;;8.50;66.30;;;;;;4995791;28;20113;-85
2023/01/15 09:01:05;;;;;;;5.65;2.47;;;8.50;66.30;;;;;;4978054;28;20198;-85
2023/01/15 09:03:32;;;;;;;7.25;1.40;;;8.40;66.10;;;;;;4982096;28;20042;-86
2023/01/15 09:05:59;;;;;;;6.03;1.80;;;8.40;66.10;;;;;;4994495;28;20039;-88
2023/01/15 09:08:26;;;;;;;9.40;1.80;;;8.40;66.10;;;;;;4982007;28;20651;-85
2023/01/15 09:11:00;;;;;;;5.63;1.33;;;8.40;66.10;;;;;;4969551;28;20277;-85
2023/01/15 09:13:30;;;;;;;5.07;1.30;;;8.40;66.00;;;;;;4974817;28;20030;-84
2023/01/15 09:16:04;;;;;;;7.32;1.70;;;8.40;65.90;;;;;;4983017;28;20557;-82
2023/01/15 09:18:33;;;;;;;7.55;1.73;;;8.40;65.90;;;;;;4980467;28;20039;-84
2023/01/15 09:20:58;;;;;;;9.82;2.03;;;8.40;65.80;;;;;;4993626;28;20114;-85
2023/01/15 09:23:24;;;;;;;9.15;1.67;;;8.30;65.60;;;;;;4972872;28;20132;-86
2023/01/15 09:26:04;;;;;;;9.00;2.30;;;8.40;65.80;;;;;;4986839;28;20127;-85
2023/01/15 09:28:30;;;;;;;8.65;2.83;;;8.40;65.80;;;;;;4970851;28;20031;-85
2023/01/15 09:30:56;;;;;;;11.65;2.60;;;8.30;65.60;;;;;;4963675;28;20410;-81
2023/01/15 09:33:23;;;;;;;9.68;1.98;;;8.40;65.70;;;;;;4977158;28;20035;-86
2023/01/15 09:35:49;;;;;;;8.75;1.75;;;8.40;65.80;;;;;;4972613;28;20045;-88
2023/01/15 09:38:19;;;;;;;9.82;4.00;;;8.40;65.70;;;;;;4991383;28;20045;-84
2023/01/15 09:40:55;;;;;;;4.78;1.48;;;8.50;65.80;;;;;;4985228;28;20023;-87
2023/01/15 09:43:46;;;;;;;8.98;3.35;;;8.50;65.70;;;;;;4984778;28;20023;-85
2023/01/15 09:46:29;;;;;;;6.93;2.95;;;8.60;65.80;;;;;;4987404;28;20057;-91
2023/01/15 09:49:30;;;;;;;7.38;2.95;;;8.70;65.80;;;;;;4995225;28;20387;-92
2023/01/15 09:52:28;;;;;;;9.00;3.50;;;8.70;65.70;;;;;;4958109;28;20055;-91
2023/01/15 09:55:08;;;;;;;7.20;1.95;;;8.80;65.70;;;;;;4945403;28;20053;-92
2023/01/15 09:57:35;;;;;;;9.65;2.03;;;8.90;65.70;;;;;;5000913;28;20039;-92
2023/01/15 10:00:04;;;;;;;5.50;1.80;;;9.00;65.70;;;;;;4993466;28;20508;-92
2023/01/15 10:03:19;;;;;;;10.25;1.90;;;9.00;65.60;;;;;;4982352;28;20042;-86
2023/01/15 10:06:06;;;;;;;7.65;2.05;;;9.00;65.50;;;;;;4976251;28;20038;-87
2023/01/15 10:08:55;;;;;;;8.70;2.78;;;9.10;65.60;;;;;;4979301;28;20082;-91
2023/01/15 10:14:38;;;;;;;6.22;1.50;;;9.10;65.50;;;;;;4973499;28;20039;-88
2023/01/15 10:17:18;;;;;;;6.38;1.40;;;9.10;65.40;;;;;;4966947;28;20053;-86
2023/01/15 10:19:44;;;;;;;9.32;2.22;;;9.10;65.40;;;;;;4988778;28;20038;-88
2023/01/15 10:22:26;;;;;;;8.00;1.92;;;9.20;65.60;;;;;;4991478;28;20054;-88
2023/01/15 10:24:56;;;;;;;6.60;1.80;;;9.10;65.30;;;;;;4961548;28;20521;-88
2023/01/15 10:27:25;;;;;;;8.05;1.80;;;9.20;65.40;;;;;;4974245;28;20038;-90
2023/01/15 10:30:20;;;;;;;6.95;2.00;;;9.20;65.40;;;;;;4973264;28;20520;-88
2023/01/15 10:32:52;;;;;;;6.38;1.65;;;9.20;65.30;;;;;;4980754;28;20037;-85
2023/01/15 10:36:15;;;;;;;6.35;2.17;;;9.30;65.40;;;;;;4956641;28;20041;-79
2023/01/15 10:39:23;;;;;;;8.18;2.10;;;9.40;65.50;;;;;;4931812;28;20059;-88
2023/01/15 10:42:05;;;;;;;8.80;2.53;;;9.50;65.70;;;;;;4959555;29;20086;-90
2023/01/15 10:44:48;;;;;;;6.97;1.58;;;9.60;65.70;;;;;;4976788;28;20449;-90
2023/01/15 10:47:19;;;;;;;7.25;1.77;;;9.70;65.90;;;;;;4986578;28;20055;-86
2023/01/15 10:49:48;;;;;;;7.28;1.90;;;9.80;65.90;;;;;;4995266;28;20434;-86
2023/01/15 10:52:26;;;;;;;5.57;1.67;;;9.80;65.80;;;;;;4989481;28;20138;-88
2023/01/15 10:55:15;;;;;;;6.72;2.00;;;9.80;65.70;;;;;;4981913;28;20042;-87
2023/01/15 10:57:52;;;;;;;5.75;1.42;;;9.90;65.80;;;;;;4977299;28;20109;-87
2023/01/15 11:00:21;;;;;;;7.75;2.17;;;10.00;65.80;;;;;;4967542;28;20031;-88
2023/01/15 11:03:13;;;;;;;8.88;2.05;;;10.10;65.70;;;;;;4981361;28;20034;-88
2023/01/15 11:05:40;;;;;;;9.85;1.60;;;10.10;65.60;;;;;;4973873;28;20385;-89
2023/01/15 11:08:19;;;;;;;6.13;1.63;;;10.20;65.70;;;;;;4983959;28;20026;-90
2023/01/15 11:10:45;;;;;;;9.50;1.67;;;10.30;65.90;;;;;;4971706;28;20077;-89
2023/01/15 11:21:52;;;;;;;5.32;1.52;;;10.60;66.10;;;;;;4984269;28;20026;-84
2023/01/15 11:24:19;;;;;;;6.97;2.58;;;10.80;66.50;;;;;;4972460;28;20023;-87
2023/01/15 11:26:50;;;;;;;6.40;2.17;;;11.00;66.40;;;;;;4990916;28;20034;-88
2023/01/15 11:29:29;;;;;;;7.20;1.60;;;11.20;66.40;;;;;;4975459;28;20030;-88
2023/01/15 11:31:56;;;;;;;4.07;1.65;;;11.40;66.50;;;;;;4985250;28;20061;-87
2023/01/15 11:34:23;;;;;;;13.43;3.10;;;11.50;66.30;;;;;;4972165;28;20093;-86
2023/01/15 11:37:04;;;;;;;7.25;1.83;;;11.80;66.40;;;;;;4980766;28;20039;-82
2023/01/15 11:39:30;;;;;;;6.43;2.85;;;11.90;66.10;;;;;;4979948;28;20090;-84
2023/01/15 11:50:51;;;;;;;11.00;2.85;;;12.50;65.70;;;;;;4966065;28;20395;-78
2023/01/15 11:53:24;;;;;;;10.35;2.80;;;12.70;66.20;;;;;;4958810;28;20366;-93
2023/01/15 11:55:54;;;;;;;7.68;2.15;;;13.00;66.50;;;;;;4982534;28;20105;-87
2023/01/15 11:58:23;;;;;;;7.38;2.65;;;13.30;66.90;;;;;;4967283;28;20061;-82
2023/01/15 12:00:53;;;;;;;6.97;2.47;;;13.60;67.10;;;;;;4964887;28;20057;-81
2023/01/15 12:03:24;;;;;;;6.50;2.63;;;14.00;67.30;;;;;;4960860;28;20035;-81
2023/01/15 12:05:57;;;;;;;13.15;2.28;;;14.30;67.30;;;;;;4984821;28;20042;-86
2023/01/15 12:08:48;;;;;;;7.47;2.53;;;14.70;67.50;;;;;;5018989;28;20027;-87
2023/01/15 12:11:39;;;;;;;6.25;1.85;;;15.10;67.70;;;;;;5011816;28;20034;-88
2023/01/15 12:14:51;;;;;;;8.63;2.88;;;15.50;67.50;;;;;;4992219;28;20038;-82
2023/01/15 12:17:42;;;;;;;15.00;3.22;;;15.80;67.10;;;;;;4978685;28;20081;-81
2023/01/15 12:20:38;;;;;;;10.63;3.45;;;16.00;66.80;;;;;;4983190;28;20114;-83
2023/01/15 12:23:04;;;;;;;10.30;3.03;;;15.80;66.10;;;;;;5006515;28;20051;-86
2023/01/15 12:25:40;;;;;;;9.60;3.25;;;15.60;66.10;;;;;;5000996;28;20037;-80
2023/01/15 12:28:18;;;;;;;12.75;3.15;;;15.40;65.80;;;;;;4975775;28;20573;-89
2023/01/15 12:30:59;;;;;;;8.95;3.75;;;15.20;65.80;;;;;;4988101;28;20029;-94
2023/01/15 12:33:50;;;;;;;7.80;3.38;;;14.90;65.50;;;;;;4991724;28;20066;-94
2023/01/15 12:36:28;;;;;;;5.63;2.38;;;14.70;65.40;;;;;;5012479;28;20138;-94
2023/01/15 12:38:59;;;;;;;12.73;2.88;;;14.40;65.20;;;;;;5013222;28;20038;-96
2023/01/15 12:45:02;;;;;;;;;;;14.10;65.20;;;;;;4966109;28;20400;-82
2023/01/15 12:47:47;;;;;;;10.55;3.45;;;13.90;65.30;;;;;;4981025;28;19925;-80
2023/01/15 12:50:22;;;;;;;8.75;2.53;;;13.80;66.00;;;;;;4961914;28;20038;-79
2023/01/15 12:52:56;;;;;;;9.13;2.85;;;13.80;66.60;;;;;;4957189;28;20061;-79
2023/01/15 12:55:28;;;;;;;9.45;2.42;;;13.90;67.00;;;;;;4960813;28;20592;-79
2023/01/15 12:58:00;;;;;;;5.80;2.35;;;14.00;67.40;;;;;;4962889;28;20043;-80
2023/01/15 13:00:34;;;;;;;10.05;2.00;;;14.10;67.90;;;;;;4965983;28;20058;-79
2023/01/15 13:03:21;;;;;;;4.55;1.58;;;14.20;68.10;;;;;;4962390;28;20034;-77
2023/01/15 13:06:00;;;;;;;5.45;2.03;;;14.30;68.40;;;;;;4965439;28;20038;-77
2023/01/15 13:08:29;;;;;;;9.38;1.80;;;14.40;68.50;;;;;;4966380;28;20035;-91
2023/01/15 13:10:55;;;;;;;7.68;2.53;;;14.50;68.50;;;;;;4994073;28;20145;-89
2023/01/15 13:13:27;;;;;;;7.55;2.00;;;14.60;68.50;;;;;;4988037;28;20031;-89
2023/01/15 13:16:17;;;;;;;10.65;3.78;;;14.70;68.50;;;;;;4988720;28;20046;-92
2023/01/15 13:19:08;;;;;;;8.98;1.70;;;14.70;68.30;;;;;;4980074;28;20045;-94
2023/01/15 13:21:40;;;;;;;7.38;2.72;;;14.70;68.20;;;;;;4993529;28;20018;-89
2023/01/15 13:24:41;;;;;;;5.03;1.75;;;14.70;68.10;;;;;;4997021;28;20405;-93
2023/01/15 13:27:34;;;;;;;7.35;2.30;;;14.70;68.00;;;;;;4986670;28;20043;-93
2023/01/15 13:30:32;;;;;;;9.77;2.60;;;14.60;67.90;;;;;;4994970;28;20125;-94
2023/01/15 13:33:22;;;;;;;4.18;1.42;;;14.60;67.90;;;;;;4979757;28;20045;-92
2023/01/15 13:35:56;;;;;;;3.17;1.40;;;14.50;67.80;;;;;;4988681;28;20035;-92
2023/01/15 13:38:36;;;;;;;11.32;2.38;;;14.50;67.90;;;;;;4993058;28;20062;-92
2023/01/15 13:41:07;;;;;;;7.05;2.28;;;14.40;67.70;;;;;;4989894;28;20510;-90
2023/01/15 13:43:42;;;;;;;4.55;1.35;;;14.40;67.70;;;;;;4980539;28;20035;-94
2023/01/15 13:46:12;;;;;;;3.90;1.60;;;14.30;67.50;;;;;;4986812;28;20070;-93
2023/01/15 13:48:52;;;;;;;8.00;1.70;;;14.30;67.50;;;;;;5012596;28;20066;-94
2023/01/15 13:51:28;;;;;;;7.65;1.77;;;14.40;67.60;;;;;;4989819;28;20050;-92
2023/01/15 13:53:58;;;;;;;4.38;1.30;;;14.40;67.50;;;;;;4981941;28;20042;-89
2023/01/15 13:56:28;;;;;;;3.83;1.52;;;14.40;67.20;;;;;;4986264;28;20040;-84
2023/01/15 13:58:57;;;;;;;4.45;1.77;;;14.40;67.00;;;;;;4985959;28;20038;-81
2023/01/15 14:01:29;;;;;;;3.10;1.77;;;14.50;67.10;;;;;;4983422;28;20031;-84
2023/01/15 14:04:16;;;;;;;4.95;1.60;;;14.40;67.00;;;;;;4983019;28;20038;-84
2023/01/15 14:06:46;;;;;;;10.40;2.58;;;14.50;67.30;;;;;;4980298;28;20034;-88
2023/01/15 14:09:28;;;;;;;7.45;2.25;;;14.50;66.70;;;;;;4984834;28;20034;-82
2023/01/15 14:11:55;;;;;;;8.18;1.90;;;14.40;66.10;;;;;;4982454;28;20117;-87
2023/01/15 14:14:33;;;;;;;7.57;1.50;;;14.40;66.40;;;;;;4979166;28;20042;-83
2023/01/15 14:16:59;;;;;;;8.60;1.83;;;14.40;66.30;;;;;;4969826;28;20414;-80
2023/01/15 14:19:52;;;;;;;8.45;1.90;;;14.50;66.40;;;;;;4964441;28;20046;-80
2023/01/15 14:22:37;;;;;;;7.53;1.85;;;14.60;66.10;;;;;;4956241;28;20086;-81